Time;durP1;ratioP1;P1;durP2;ratioP2;P2;SDS_P1;SDS_P2;PMS_P1;PMS_P2;Temp;Humidity;BMP_temperature;BMP_pressure;BME280_temperature;BME280_humidity;BME280_pressure;Samples;Min_cycle;Max_cycle;Signal;HPM_P1;HPM_P2
2023/01/27 00:01:17;;;;;;;35.17;22.52;;;2.10;67.80;;;;;;4961707;28;20039;-76
2023/01/27 00:03:45;;;;;;;26.33;16.73;;;2.00;99.90;;;;;;4961745;28;20057;-78
2023/01/27 00:06:12;;;;;;;32.55;19.38;;;2.00;99.90;;;;;;4961234;28;20040;-76
2023/01/27 00:08:40;;;;;;;36.25;21.65;;;2.10;1.00;;;;;;4962502;28;20038;-76
2023/01/27 00:13:54;;;;;;;27.88;18.30;;;2.00;99.90;;;;;;4960860;28;20384;-75
2023/01/27 00:16:22;;;;;;;28.77;18.30;;;2.10;99.90;;;;;;4961776;28;20051;-77
2023/01/27 00:18:50;;;;;;;26.30;17.48;;;2.10;1.00;;;;;;4962518;28;20046;-75
2023/01/27 00:26:48;;;;;;;27.70;18.55;;;2.20;99.90;;;;;;4960990;28;20055;-77
2023/01/27 00:29:16;;;;;;;31.52;19.90;;;2.30;1.00;;;;;;4962899;28;20480;-76
2023/01/27 00:34:28;;;;;;;40.33;24.35;;;2.30;99.90;;;;;;4962756;28;20094;-77
2023/01/27 00:36:55;;;;;;;54.03;28.85;;;2.30;1.00;;;;;;4961568;28;20046;-77
2023/01/27 00:39:23;;;;;;;51.70;28.48;;;2.30;1.00;;;;;;4967944;28;20058;-77
2023/01/27 00:41:52;;;;;;;48.22;27.70;;;2.30;73.20;;;;;;4972201;28;20042;-76
2023/01/27 00:44:19;;;;;;;41.63;25.95;;;2.30;99.90;;;;;;4961300;28;20046;-77
2023/01/27 00:46:47;;;;;;;46.75;26.85;;;2.40;1.00;;;;;;4962336;28;20090;-78
2023/01/27 00:49:14;;;;;;;52.63;31.33;;;2.40;1.00;;;;;;4983356;28;20047;-76
2023/01/27 00:51:42;;;;;;;52.47;31.15;;;2.30;1.00;;;;;;4983705;28;20054;-76
2023/01/27 00:54:09;;;;;;;50.45;31.08;;;2.30;1.00;;;;;;4962108;28;20073;-75
2023/01/27 00:56:37;;;;;;;63.10;37.60;;;2.40;1.00;;;;;;4961504;28;20047;-75
2023/01/27 00:59:06;;;;;;;57.70;37.90;;;2.40;14.60;;;;;;4960345;28;20446;-77
2023/01/27 01:01:34;;;;;;;51.40;33.25;;;2.40;1.00;;;;;;4962444;28;20484;-75
2023/01/27 01:04:02;;;;;;;54.28;34.72;;;2.40;1.00;;;;;;4960255;28;20049;-74
2023/01/27 01:06:31;;;;;;;45.13;29.83;;;2.40;99.90;;;;;;4959649;28;20071;-76
2023/01/27 01:08:58;;;;;;;48.65;30.90;;;2.40;99.90;;;;;;4961416;28;20090;-76
2023/01/27 01:11:26;;;;;;;47.13;32.25;;;2.40;1.00;;;;;;4960880;28;20134;-76
2023/01/27 01:13:53;;;;;;;49.17;33.10;;;2.40;1.00;;;;;;4960532;28;20098;-77
2023/01/27 01:16:24;;;;;;;40.58;27.67;;;2.40;1.00;;;;;;4959560;28;20153;-76
2023/01/27 01:18:52;;;;;;;49.78;33.00;;;2.40;1.00;;;;;;4959836;28;20500;-75
2023/01/27 01:21:21;;;;;;;59.28;36.38;;;2.40;1.00;;;;;;4960430;28;20675;-75
2023/01/27 01:23:48;;;;;;;57.90;36.03;;;2.40;1.00;;;;;;4959396;28;20069;-75
2023/01/27 01:26:17;;;;;;;47.88;31.77;;;2.40;1.00;;;;;;4960565;28;20039;-76
2023/01/27 01:28:45;;;;;;;48.67;30.67;;;2.50;1.00;;;;;;4988066;28;20119;-78
2023/01/27 01:31:14;;;;;;;38.35;25.02;;;2.60;1.00;;;;;;4975086;28;20051;-75
2023/01/27 01:33:43;;;;;;;30.95;21.63;;;2.50;48.50;;;;;;4969285;28;20146;-77
2023/01/27 01:36:13;;;;;;;28.48;20.88;;;2.50;90.50;;;;;;4962439;28;20046;-76
2023/01/27 01:38:40;;;;;;;29.80;19.90;;;2.50;1.00;;;;;;4961575;28;20062;-77
2023/01/27 01:41:11;;;;;;;31.33;21.73;;;2.40;99.90;;;;;;4961790;28;20045;-78
2023/01/27 01:43:41;;;;;;;31.90;21.33;;;2.40;99.90;;;;;;4984521;28;20047;-78
2023/01/27 01:46:10;;;;;;;29.63;20.02;;;2.30;99.90;;;;;;4960290;28;20050;-74
2023/01/27 01:48:41;;;;;;;29.23;19.50;;;2.30;1.00;;;;;;4960387;28;20046;-76
2023/01/27 01:51:15;;;;;;;28.98;20.33;;;2.20;99.90;;;;;;4958447;28;20527;-77
2023/01/27 01:53:47;;;;;;;33.40;23.15;;;2.30;1.00;;;;;;4960943;28;20049;-77
2023/01/27 01:56:18;;;;;;;32.15;23.70;;;2.20;1.00;;;;;;4960497;28;20484;-78
2023/01/27 01:58:46;;;;;;;33.10;22.58;;;2.20;1.00;;;;;;4983712;28;20047;-77
2023/01/27 02:01:15;;;;;;;29.58;20.42;;;2.20;99.90;;;;;;4958372;28;20047;-76
2023/01/27 02:03:47;;;;;;;29.52;19.85;;;2.20;1.00;;;;;;4961312;28;20035;-77
2023/01/27 02:06:17;;;;;;;29.33;20.45;;;2.20;99.90;;;;;;4960418;28;20038;-76
2023/01/27 02:08:46;;;;;;;27.23;19.05;;;2.30;1.00;;;;;;4959503;28;20052;-75
2023/01/27 02:11:14;;;;;;;29.70;19.80;;;2.30;1.00;;;;;;4959255;28;20145;-75
2023/01/27 02:13:42;;;;;;;31.63;18.60;;;2.30;99.90;;;;;;4957836;28;20055;-76
2023/01/27 02:16:11;;;;;;;33.22;19.42;;;2.20;1.00;;;;;;4960822;28;20069;-76
2023/01/27 02:18:40;;;;;;;39.47;21.60;;;2.20;99.90;;;;;;4960894;28;20049;-74
2023/01/27 02:21:08;;;;;;;47.85;26.67;;;2.20;99.90;;;;;;4960418;28;20046;-75
2023/01/27 02:23:55;;;;;;;51.75;28.10;;;2.20;1.00;;;;;;4963204;28;20069;-76
2023/01/27 02:26:28;;;;;;;47.03;25.85;;;2.20;1.00;;;;;;4963672;28;20130;-78
2023/01/27 02:28:58;;;;;;;41.95;24.77;;;2.30;81.40;;;;;;4963873;28;20049;-74
2023/01/27 02:31:27;;;;;;;59.42;29.42;;;2.30;99.90;;;;;;4962920;28;20105;-76
2023/01/27 02:33:59;;;;;;;73.43;38.72;;;2.30;99.90;;;;;;4963711;28;20117;-76
2023/01/27 02:36:29;;;;;;;78.13;41.55;;;2.30;1.00;;;;;;4963858;28;20263;-76
2023/01/27 02:39:00;;;;;;;76.65;42.60;;;2.30;31.10;;;;;;4962679;28;20082;-75
2023/01/27 02:41:33;;;;;;;54.88;30.77;;;2.30;1.00;;;;;;4961792;28;20412;-77
2023/01/27 02:44:01;;;;;;;47.33;25.88;;;2.30;1.00;;;;;;4963152;28;20051;-76
2023/01/27 02:46:29;;;;;;;93.63;51.90;;;2.40;99.90;;;;;;4964680;28;20083;-76
2023/01/27 02:48:56;;;;;;;90.10;51.47;;;2.40;1.00;;;;;;4962536;28;20054;-74
2023/01/27 02:51:24;;;;;;;67.28;40.25;;;2.30;1.00;;;;;;4960499;28;20899;-75
2023/01/27 02:53:52;;;;;;;60.75;34.50;;;2.30;99.90;;;;;;4962594;28;20047;-75
2023/01/27 02:56:20;;;;;;;40.45;23.63;;;2.40;1.00;;;;;;4959503;28;20529;-78
2023/01/27 02:58:49;;;;;;;46.50;30.08;;;2.30;99.90;;;;;;4964010;28;20043;-75
2023/01/27 03:01:24;;;;;;;51.05;29.42;;;2.30;1.00;;;;;;4961907;28;20106;-75
2023/01/27 03:03:51;;;;;;;30.15;19.83;;;2.30;1.00;;;;;;4963153;28;20054;-77
2023/01/27 03:06:20;;;;;;;33.30;20.23;;;2.30;99.90;;;;;;4961456;28;20062;-75
2023/01/27 03:08:48;;;;;;;30.10;18.13;;;2.30;1.00;;;;;;4961987;28;20054;-77
2023/01/27 03:12:18;;;;;;;30.00;17.35;;;2.30;1.00;;;;;;4961905;28;20141;-78
2023/01/27 03:14:07;;;;;;;31.65;19.33;;;2.30;99.90;;;;;;4961360;28;20070;-77
2023/01/27 03:19:20;;;;;;;30.05;17.73;;;2.30;1.00;;;;;;4938448;29;20062;-77
2023/01/27 03:21:49;;;;;;;26.63;16.60;;;2.30;1.00;;;;;;4939600;29;20047;-78
2023/01/27 03:24:18;;;;;;;28.25;16.65;;;2.40;1.00;;;;;;4955955;29;20087;-77
2023/01/27 03:26:46;;;;;;;28.40;16.65;;;2.40;99.90;;;;;;4941444;29;20043;-76
2023/01/27 03:32:11;;;;;;;27.98;17.73;;;2.30;1.00;;;;;;4927432;29;20059;-80
2023/01/27 03:34:39;;;;;;;29.48;19.33;;;2.40;99.90;;;;;;4944191;29;20043;-79
2023/01/27 03:48:19;;;;;;;51.20;34.53;;;2.40;1.00;;;;;;4951776;29;20051;-76
2023/01/27 03:50:51;;;;;;;54.95;33.95;;;2.40;1.00;;;;;;4956090;29;20070;-77
2023/01/27 03:53:19;;;;;;;60.22;35.30;;;2.40;99.90;;;;;;4936690;29;20065;-77
2023/01/27 03:55:47;;;;;;;70.60;44.78;;;2.40;1.00;;;;;;4953066;29;20043;-76
2023/01/27 03:58:23;;;;;;;95.88;59.67;;;2.40;99.90;;;;;;4936174;29;20043;-76
2023/01/27 04:00:54;;;;;;;70.65;45.35;;;2.40;99.90;;;;;;4936902;29;20106;-77
2023/01/27 04:08:56;;;;;;;85.88;54.45;;;2.50;99.90;;;;;;4952659;29;20506;-75
2023/01/27 04:14:11;;;;;;;64.15;45.00;;;2.40;1.00;;;;;;4936821;29;20074;-77
2023/01/27 04:16:40;;;;;;;70.13;46.70;;;2.50;44.00;;;;;;4952876;28;20070;-78
2023/01/27 04:19:09;;;;;;;97.03;62.83;;;2.40;1.00;;;;;;4951213;29;20043;-75
2023/01/27 04:21:37;;;;;;;88.03;57.83;;;2.40;1.00;;;;;;4936357;29;20051;-79
2023/01/27 04:24:07;;;;;;;72.75;48.65;;;2.40;1.00;;;;;;4952018;29;20047;-78
2023/01/27 04:26:40;;;;;;;56.70;37.92;;;2.40;99.90;;;;;;4953805;29;20039;-79
2023/01/27 04:29:08;;;;;;;40.45;28.42;;;2.40;1.00;;;;;;4936628;29;20140;-77
2023/01/27 04:31:36;;;;;;;41.35;27.58;;;2.40;1.00;;;;;;4935872;29;20043;-77
2023/01/27 04:34:05;;;;;;;66.57;40.33;;;2.40;51.60;;;;;;4953606;29;20043;-75
2023/01/27 04:36:33;;;;;;;76.82;45.72;;;2.40;95.10;;;;;;4936712;29;20050;-77
2023/01/27 04:39:02;;;;;;;61.67;38.28;;;2.40;46.00;;;;;;4952218;29;20506;-77
2023/01/27 04:41:29;;;;;;;43.50;25.95;;;2.40;99.90;;;;;;4938728;29;20051;-78
2023/01/27 04:43:57;;;;;;;42.65;24.52;;;2.30;99.90;;;;;;4936201;29;20043;-77
2023/01/27 04:46:25;;;;;;;64.38;30.63;;;2.30;99.90;;;;;;4935769;29;20039;-77
2023/01/27 04:48:52;;;;;;;51.30;30.88;;;2.30;1.00;;;;;;4936187;29;20506;-77
2023/01/27 04:51:21;;;;;;;70.57;39.60;;;2.40;1.00;;;;;;4951369;29;20478;-76
2023/01/27 04:53:51;;;;;;;50.55;31.45;;;2.40;1.00;;;;;;4934516;29;20047;-79
2023/01/27 04:56:25;;;;;;;54.03;30.52;;;2.50;1.00;;;;;;4935944;29;20069;-77
2023/01/27 04:58:54;;;;;;;45.17;27.50;;;2.50;20.80;;;;;;4952963;29;20039;-78
2023/01/27 05:01:25;;;;;;;47.97;26.95;;;2.50;99.90;;;;;;4935420;29;20070;-76
2023/01/27 05:03:52;;;;;;;62.90;33.45;;;2.50;99.90;;;;;;4933924;29;20106;-79
2023/01/27 05:06:23;;;;;;;88.75;47.13;;;2.50;99.90;;;;;;4952202;29;20047;-75
2023/01/27 05:08:51;;;;;;;88.75;47.70;;;2.60;1.00;;;;;;4936335;29;20050;-77
2023/01/27 05:11:19;;;;;;;56.65;32.72;;;2.60;99.90;;;;;;4936106;29;20074;-77
2023/01/27 05:13:47;;;;;;;47.28;28.95;;;2.60;1.00;;;;;;4950642;29;20070;-76
2023/01/27 05:16:17;;;;;;;41.85;24.63;;;2.50;99.90;;;;;;4942130;29;20576;-77
2023/01/27 05:18:47;;;;;;;34.35;21.80;;;2.50;1.00;;;;;;4952490;29;20039;-75
2023/01/27 05:21:18;;;;;;;36.63;21.92;;;2.50;1.00;;;;;;4934765;29;20638;-78
2023/01/27 05:23:48;;;;;;;32.38;21.42;;;2.60;1.00;;;;;;4937349;29;20047;-77
2023/01/27 05:26:17;;;;;;;32.85;20.67;;;2.60;1.00;;;;;;4951673;29;20054;-80
2023/01/27 05:28:47;;;;;;;29.65;19.73;;;2.60;99.90;;;;;;4952561;29;20047;-77
2023/01/27 05:31:17;;;;;;;35.13;21.73;;;2.50;1.00;;;;;;4950319;29;20412;-75
2023/01/27 05:33:46;;;;;;;31.45;20.85;;;2.50;1.00;;;;;;4934644;29;20534;-75
2023/01/27 05:36:16;;;;;;;53.10;30.13;;;2.50;1.00;;;;;;4935316;29;20039;-76
2023/01/27 05:38:44;;;;;;;42.13;26.20;;;2.50;1.00;;;;;;4951371;29;20098;-77
2023/01/27 05:41:14;;;;;;;43.13;26.33;;;2.60;1.00;;;;;;4935508;29;20055;-78
2023/01/27 05:43:43;;;;;;;30.33;19.25;;;2.50;1.00;;;;;;4951747;29;20059;-76
2023/01/27 05:46:13;;;;;;;32.35;19.75;;;2.50;1.00;;;;;;4935599;29;20057;-78
2023/01/27 05:48:42;;;;;;;30.15;19.20;;;2.50;1.00;;;;;;4935711;29;20051;-80
2023/01/27 05:51:11;;;;;;;27.73;17.63;;;2.50;1.00;;;;;;4952839;28;20035;-77
2023/01/27 05:53:38;;;;;;;27.35;17.58;;;2.60;1.00;;;;;;4935796;29;20174;-79
2023/01/27 05:56:09;;;;;;;23.33;14.93;;;2.60;1.00;;;;;;4967509;28;20043;-77
2023/01/27 05:58:39;;;;;;;21.35;14.40;;;2.60;1.00;;;;;;4965608;29;20550;-77
2023/01/27 06:01:08;;;;;;;23.25;15.07;;;2.60;1.00;;;;;;4964314;28;20035;-76
2023/01/27 06:03:36;;;;;;;23.95;15.98;;;2.60;1.00;;;;;;4950082;29;20051;-78
2023/01/27 06:06:04;;;;;;;29.30;17.58;;;2.50;99.90;;;;;;4956365;29;20039;-77
2023/01/27 06:08:32;;;;;;;29.58;18.23;;;2.50;99.90;;;;;;4939125;29;20044;-78
2023/01/27 06:11:01;;;;;;;26.95;17.75;;;2.40;1.00;;;;;;4953898;29;20130;-78
2023/01/27 06:13:29;;;;;;;38.90;18.50;;;2.40;1.00;;;;;;4938994;29;20078;-76
2023/01/27 06:15:57;;;;;;;67.43;20.85;;;2.40;1.00;;;;;;4955841;28;20114;-76
2023/01/27 06:18:25;;;;;;;35.85;21.15;;;2.40;1.00;;;;;;4939898;29;20047;-77
2023/01/27 06:20:53;;;;;;;38.05;21.27;;;2.40;1.00;;;;;;4956862;28;20106;-77
2023/01/27 06:23:22;;;;;;;33.90;20.45;;;2.50;1.00;;;;;;4939761;29;20055;-77
2023/01/27 06:25:50;;;;;;;32.55;19.33;;;2.50;99.90;;;;;;4954521;29;20047;-77
2023/01/27 06:28:18;;;;;;;27.38;16.85;;;2.60;99.90;;;;;;4954296;29;20314;-79
2023/01/27 06:30:46;;;;;;;23.38;15.63;;;2.50;1.00;;;;;;4939034;29;20138;-77
2023/01/27 06:33:15;;;;;;;27.17;17.98;;;2.50;1.00;;;;;;4938508;29;20051;-78
2023/01/27 06:35:43;;;;;;;29.02;18.92;;;2.50;1.00;;;;;;4938669;29;20051;-79
2023/01/27 06:38:14;;;;;;;29.17;20.30;;;2.50;1.00;;;;;;4939341;29;20047;-79
2023/01/27 06:40:41;;;;;;;31.00;21.25;;;2.50;1.00;;;;;;4955529;29;20051;-76
2023/01/27 06:43:12;;;;;;;26.90;19.08;;;2.50;1.00;;;;;;4954110;28;20101;-78
2023/01/27 06:45:40;;;;;;;28.92;19.90;;;2.50;1.00;;;;;;4954527;29;20043;-79
2023/01/27 06:48:15;;;;;;;32.10;20.58;;;2.50;1.00;;;;;;4948315;29;20047;-77
2023/01/27 06:50:45;;;;;;;29.60;20.05;;;2.50;1.00;;;;;;4955842;29;20078;-77
2023/01/27 06:53:12;;;;;;;32.22;21.15;;;2.60;1.00;;;;;;4949397;29;20055;-77
2023/01/27 06:55:42;;;;;;;30.52;20.25;;;2.60;1.00;;;;;;4939766;29;20083;-79
2023/01/27 06:58:10;;;;;;;29.77;21.27;;;2.70;1.00;;;;;;4939949;29;20074;-77
2023/01/27 07:00:39;;;;;;;32.22;21.58;;;2.60;1.00;;;;;;4943763;29;20095;-78
2023/01/27 07:03:09;;;;;;;29.38;21.23;;;2.70;1.00;;;;;;4938927;29;20575;-77
2023/01/27 07:05:38;;;;;;;31.08;19.58;;;2.70;1.00;;;;;;4957375;29;20189;-78
2023/01/27 07:08:08;;;;;;;27.35;19.20;;;2.80;1.00;;;;;;4954860;28;20527;-77
2023/01/27 07:10:35;;;;;;;26.33;17.27;;;2.80;1.00;;;;;;4956383;28;20090;-77
2023/01/27 07:13:06;;;;;;;21.90;15.10;;;2.90;1.00;;;;;;4953586;29;20043;-79
2023/01/27 07:15:35;;;;;;;19.73;14.25;;;2.80;1.00;;;;;;4937793;29;20055;-76
2023/01/27 07:18:03;;;;;;;24.02;13.77;;;2.90;1.00;;;;;;4953275;29;20070;-77
2023/01/27 07:20:32;;;;;;;22.52;13.63;;;2.80;99.90;;;;;;4937532;29;20484;-78
2023/01/27 07:23:00;;;;;;;19.30;12.35;;;2.80;99.90;;;;;;4953010;29;20133;-75
2023/01/27 07:25:30;;;;;;;14.32;10.27;;;2.90;99.90;;;;;;4955751;29;20043;-79
2023/01/27 07:27:58;;;;;;;17.73;10.65;;;2.90;99.90;;;;;;4938514;29;20099;-76
2023/01/27 07:30:25;;;;;;;18.70;11.73;;;2.80;1.00;;;;;;4937551;29;20054;-76
2023/01/27 07:32:54;;;;;;;18.00;11.90;;;2.80;99.90;;;;;;4954032;29;20091;-77
2023/01/27 07:35:22;;;;;;;28.73;17.40;;;2.90;28.60;;;;;;4939754;29;20503;-76
2023/01/27 07:37:49;;;;;;;40.72;22.63;;;2.90;1.00;;;;;;4944304;29;20138;-75
2023/01/27 07:40:18;;;;;;;43.28;23.08;;;3.00;31.60;;;;;;4941957;29;20047;-77
2023/01/27 07:42:47;;;;;;;46.67;26.35;;;3.10;99.90;;;;;;4940320;29;20550;-77
2023/01/27 07:45:16;;;;;;;46.95;27.45;;;3.20;99.90;;;;;;4953551;29;20078;-74
2023/01/27 07:47:43;;;;;;;103.70;59.53;;;3.20;1.00;;;;;;4959872;29;20042;-74
2023/01/27 07:50:12;;;;;;;43.88;24.05;;;3.20;1.00;;;;;;4942323;29;20138;-77
2023/01/27 07:52:39;;;;;;;37.05;22.33;;;3.10;1.00;;;;;;4938343;29;20423;-76
2023/01/27 07:55:08;;;;;;;32.58;20.75;;;3.20;1.00;;;;;;4937188;29;20050;-78
2023/01/27 07:57:35;;;;;;;28.08;18.83;;;3.20;1.00;;;;;;4937510;29;20055;-76
2023/01/27 08:00:05;;;;;;;30.50;17.67;;;3.30;1.00;;;;;;4951544;29;20058;-77
2023/01/27 08:02:40;;;;;;;30.58;18.67;;;3.30;1.00;;;;;;4953358;29;20051;-77
2023/01/27 08:05:09;;;;;;;27.88;18.00;;;3.40;1.00;;;;;;4954668;29;20566;-76
2023/01/27 08:07:36;;;;;;;26.92;17.55;;;3.50;1.00;;;;;;4952611;29;20483;-78
2023/01/27 08:10:05;;;;;;;27.88;17.58;;;3.50;1.00;;;;;;4952552;29;20098;-76
2023/01/27 08:12:32;;;;;;;29.02;18.25;;;3.60;1.00;;;;;;4958940;29;20043;-76
2023/01/27 08:15:00;;;;;;;22.63;15.70;;;3.60;99.90;;;;;;4939951;28;20047;-77
2023/01/27 08:17:29;;;;;;;23.92;14.70;;;3.50;99.90;;;;;;4953316;29;20098;-78
2023/01/27 08:19:57;;;;;;;26.65;16.63;;;3.50;99.90;;;;;;4935738;29;20046;-80
2023/01/27 08:22:24;;;;;;;24.77;16.25;;;3.50;99.90;;;;;;4937808;29;20079;-78
2023/01/27 08:24:52;;;;;;;25.00;16.10;;;3.30;99.90;;;;;;4937096;29;20066;-78
2023/01/27 08:27:22;;;;;;;27.45;16.75;;;3.40;99.90;;;;;;4937496;29;20405;-77
2023/01/27 08:29:50;;;;;;;28.70;17.50;;;3.40;99.90;;;;;;4951631;29;20511;-76
2023/01/27 08:32:17;;;;;;;31.02;18.60;;;3.40;99.90;;;;;;4936710;29;20377;-77
2023/01/27 08:34:46;;;;;;;32.20;18.70;;;3.50;99.90;;;;;;4936841;29;20051;-79
2023/01/27 08:37:15;;;;;;;30.10;19.23;;;3.50;99.90;;;;;;4954061;29;20066;-75
2023/01/27 08:39:43;;;;;;;32.70;19.38;;;3.50;99.90;;;;;;4936541;28;20494;-75
2023/01/27 08:42:10;;;;;;;30.42;18.45;;;3.60;99.90;;;;;;4936566;29;20124;-77
2023/01/27 08:44:38;;;;;;;26.35;16.85;;;3.60;99.90;;;;;;4936646;29;20055;-76
2023/01/27 08:47:06;;;;;;;28.08;17.15;;;3.60;99.90;;;;;;4958003;29;20043;-77
2023/01/27 08:49:33;;;;;;;26.90;15.88;;;3.60;99.90;;;;;;4935489;29;20122;-78
2023/01/27 08:52:03;;;;;;;23.95;13.77;;;3.60;99.90;;;;;;4956681;29;20085;-76
2023/01/27 08:54:31;;;;;;;29.48;17.60;;;3.50;99.90;;;;;;4951091;29;20495;-77
2023/01/27 08:56:58;;;;;;;29.30;18.00;;;3.50;99.90;;;;;;4935821;29;20648;-76
2023/01/27 08:59:26;;;;;;;28.85;17.80;;;3.60;99.90;;;;;;4935744;28;20579;-75
2023/01/27 09:01:54;;;;;;;36.35;21.95;;;3.60;99.90;;;;;;4935813;29;20051;-76
2023/01/27 09:04:23;;;;;;;28.60;18.90;;;3.50;99.90;;;;;;4951162;29;20110;-78
2023/01/27 09:06:52;;;;;;;23.45;16.10;;;3.60;99.90;;;;;;4952323;29;20043;-76
2023/01/27 09:09:21;;;;;;;40.63;25.35;;;3.50;99.90;;;;;;4936271;28;20143;-77
2023/01/27 09:11:49;;;;;;;28.38;19.00;;;3.50;99.90;;;;;;4950381;29;20138;-78
2023/01/27 09:14:21;;;;;;;32.80;21.02;;;3.50;99.90;;;;;;4936137;29;20058;-78
2023/01/27 09:16:49;;;;;;;31.55;19.23;;;3.40;99.90;;;;;;4974501;23;20055;-74
2023/01/27 09:19:16;;;;;;;32.03;19.23;;;3.50;99.90;;;;;;4970706;28;20064;-77
2023/01/27 09:21:44;;;;;;;30.95;19.77;;;3.50;99.90;;;;;;4961167;28;20061;-76
2023/01/27 09:24:12;;;;;;;26.80;18.48;;;3.50;99.90;;;;;;4961420;28;20187;-76
2023/01/27 09:26:41;;;;;;;27.92;18.92;;;3.60;99.90;;;;;;4960978;28;20035;-76
2023/01/27 09:29:08;;;;;;;30.85;20.92;;;3.70;99.90;;;;;;4960402;28;20047;-78
2023/01/27 09:31:36;;;;;;;26.38;17.90;;;3.80;99.90;;;;;;4960673;28;20071;-75
2023/01/27 09:34:04;;;;;;;28.02;18.25;;;3.90;99.90;;;;;;4960003;28;20516;-77
2023/01/27 09:36:33;;;;;;;32.88;22.08;;;4.00;99.90;;;;;;4961475;28;20039;-77
2023/01/27 09:39:04;;;;;;;24.30;16.63;;;4.00;99.90;;;;;;4959275;28;20090;-77
2023/01/27 09:42:04;;;;;;;19.65;13.73;;;4.10;30.70;;;;;;4960901;28;20556;-76
2023/01/27 09:45:01;;;;;;;23.38;16.90;;;4.00;1.00;;;;;;4961699;28;20392;-75
2023/01/27 09:47:49;;;;;;;24.92;18.38;;;3.80;1.00;;;;;;4960554;28;20058;-76
2023/01/27 09:50:37;;;;;;;28.35;20.17;;;3.90;1.00;;;;;;4959907;28;20043;-76
2023/01/27 09:53:31;;;;;;;23.65;17.23;;;4.00;1.00;;;;;;4958034;28;20053;-75
2023/01/27 09:56:05;;;;;;;19.90;14.57;;;3.80;1.00;;;;;;4960272;28;20291;-74
2023/01/27 09:58:52;;;;;;;20.80;15.00;;;3.90;57.30;;;;;;4976045;28;20047;-77
2023/01/27 10:01:30;;;;;;;19.70;14.80;;;3.90;4.90;;;;;;4960658;28;20046;-75
2023/01/27 10:04:24;;;;;;;22.60;16.90;;;3.90;1.00;;;;;;4962468;28;20079;-77
2023/01/27 10:07:11;;;;;;;32.47;23.90;;;4.10;29.70;;;;;;4962646;28;20078;-77
2023/01/27 10:10:03;;;;;;;35.00;24.85;;;4.20;1.00;;;;;;4963661;28;20045;-77
2023/01/27 10:12:53;;;;;;;39.33;27.60;;;4.20;1.00;;;;;;4961583;28;20055;-77
2023/01/27 10:15:38;;;;;;;31.60;23.63;;;4.20;1.00;;;;;;4959125;28;20057;-78
2023/01/27 10:18:17;;;;;;;40.97;24.60;;;4.20;1.00;;;;;;4959902;28;20061;-74
2023/01/27 10:20:54;;;;;;;39.17;25.85;;;4.30;1.00;;;;;;4960320;28;20122;-77
2023/01/27 10:23:34;;;;;;;43.33;26.27;;;4.40;1.00;;;;;;4961091;28;20039;-77
2023/01/27 10:26:15;;;;;;;38.13;24.02;;;4.50;1.00;;;;;;4961036;28;20039;-78
2023/01/27 10:28:48;;;;;;;38.30;24.15;;;4.70;1.00;;;;;;4963432;28;20174;-75
2023/01/27 10:31:22;;;;;;;30.42;19.70;;;4.80;1.00;;;;;;4959794;28;20039;-75
2023/01/27 10:33:52;;;;;;;29.45;19.15;;;4.90;1.00;;;;;;4960241;28;20070;-75
2023/01/27 10:36:29;;;;;;;28.13;18.67;;;5.00;1.00;;;;;;4960615;28;20042;-78
2023/01/27 10:39:16;;;;;;;26.60;17.67;;;5.10;1.00;;;;;;4958764;28;20098;-77
2023/01/27 10:41:56;;;;;;;33.00;21.65;;;5.30;1.00;;;;;;4960468;28;20293;-76
2023/01/27 10:44:42;;;;;;;25.52;17.48;;;5.40;1.00;;;;;;4964737;28;20178;-78
2023/01/27 10:47:19;;;;;;;26.23;17.52;;;5.20;1.00;;;;;;4971981;28;20141;-76
2023/01/27 10:49:52;;;;;;;26.98;16.98;;;5.20;1.00;;;;;;4969760;28;20038;-77
2023/01/27 10:52:24;;;;;;;25.98;17.58;;;5.10;1.00;;;;;;4965401;28;20077;-77
2023/01/27 10:54:58;;;;;;;20.70;14.50;;;5.20;1.00;;;;;;4963252;28;20059;-77
2023/01/27 10:57:31;;;;;;;24.98;16.15;;;4.90;1.00;;;;;;4964395;28;20039;-77
2023/01/27 11:00:05;;;;;;;25.52;16.25;;;4.90;1.00;;;;;;4962366;28;20038;-77
2023/01/27 11:02:40;;;;;;;26.73;17.77;;;4.80;1.00;;;;;;4964142;28;20171;-75
2023/01/27 11:05:09;;;;;;;;;;;4.60;1.00;;;;;;4967017;28;20049;-75
2023/01/27 11:07:47;;;;;;;23.20;15.80;;;4.50;1.00;;;;;;4962937;28;20319;-76
2023/01/27 11:10:18;;;;;;;21.35;14.57;;;4.20;1.00;;;;;;4964157;28;20079;-75
2023/01/27 11:12:49;;;;;;;21.50;15.02;;;4.00;1.00;;;;;;4967886;28;20067;-76
2023/01/27 11:15:23;;;;;;;27.35;17.70;;;3.70;1.00;;;;;;4965402;28;20062;-78
2023/01/27 11:17:57;;;;;;;26.85;18.40;;;3.80;1.00;;;;;;4924331;29;20068;-76
2023/01/27 11:20:30;;;;;;;30.20;18.88;;;3.80;1.00;;;;;;4947068;29;20055;-76
2023/01/27 11:23:03;;;;;;;27.60;18.77;;;3.90;1.00;;;;;;4925355;29;20052;-77
2023/01/27 11:25:44;;;;;;;30.20;18.67;;;4.00;1.00;;;;;;4922546;29;20103;-75
2023/01/27 11:28:20;;;;;;;26.73;17.85;;;3.90;1.00;;;;;;4922877;29;20337;-76
2023/01/27 11:30:56;;;;;;;26.98;18.30;;;3.90;1.00;;;;;;4937662;29;20055;-76
2023/01/27 11:33:35;;;;;;;25.73;17.38;;;3.90;1.00;;;;;;4923186;29;20605;-75
2023/01/27 11:36:03;;;;;;;22.27;16.45;;;3.90;1.00;;;;;;4923193;29;20134;-76
2023/01/27 11:38:30;;;;;;;26.15;17.20;;;3.90;1.00;;;;;;4924485;29;20040;-77
2023/01/27 11:40:59;;;;;;;24.42;17.15;;;3.80;1.00;;;;;;4923612;29;20048;-76
2023/01/27 11:43:28;;;;;;;26.85;18.33;;;3.70;1.00;;;;;;4925455;29;20260;-75
2023/01/27 11:46:01;;;;;;;31.05;20.85;;;3.60;1.00;;;;;;4924171;29;20058;-75
2023/01/27 11:48:39;;;;;;;34.70;22.27;;;3.60;1.00;;;;;;4924031;29;20035;-74
2023/01/27 11:51:17;;;;;;;33.22;21.98;;;3.60;1.00;;;;;;4923601;29;20048;-76
2023/01/27 11:53:47;;;;;;;30.17;20.75;;;3.60;1.00;;;;;;4922258;29;20448;-76
2023/01/27 11:56:19;;;;;;;29.40;21.23;;;3.70;1.00;;;;;;4924632;29;20048;-76
2023/01/27 11:58:53;;;;;;;31.20;22.83;;;3.70;1.00;;;;;;4923583;29;20069;-76
2023/01/27 12:01:25;;;;;;;29.88;22.23;;;3.80;1.00;;;;;;4924472;29;20074;-75
2023/01/27 12:04:00;;;;;;;30.42;22.50;;;3.80;1.00;;;;;;4922856;29;20492;-78
2023/01/27 12:06:38;;;;;;;29.00;21.90;;;3.80;1.00;;;;;;4925128;29;20047;-77
2023/01/27 12:09:05;;;;;;;31.35;23.35;;;3.80;1.00;;;;;;4926113;29;20463;-77
2023/01/27 12:11:33;;;;;;;28.83;21.98;;;3.80;1.00;;;;;;4923703;29;20488;-77
2023/01/27 12:14:01;;;;;;;29.15;21.80;;;3.70;1.00;;;;;;4929806;29;20043;-75
2023/01/27 12:16:44;;;;;;;30.40;22.40;;;3.70;1.00;;;;;;4949958;28;20063;-77
2023/01/27 12:19:24;;;;;;;30.95;22.23;;;3.60;1.00;;;;;;4963192;28;20051;-78
2023/01/27 12:21:56;;;;;;;31.65;20.92;;;3.60;1.00;;;;;;4961693;28;20050;-78
2023/01/27 12:24:28;;;;;;;34.38;23.13;;;3.30;1.00;;;;;;4962100;28;20043;-77
2023/01/27 12:26:57;;;;;;;31.40;22.52;;;3.10;1.00;;;;;;4961109;28;20220;-77
2023/01/27 12:29:36;;;;;;;40.45;27.45;;;3.10;1.00;;;;;;4960111;28;20053;-77
2023/01/27 12:32:13;;;;;;;41.65;27.50;;;3.20;1.00;;;;;;4961305;28;20041;-76
2023/01/27 12:34:47;;;;;;;39.65;26.55;;;3.20;1.00;;;;;;4962300;28;20043;-77
2023/01/27 12:37:22;;;;;;;38.15;26.95;;;3.30;1.00;;;;;;4961511;28;20046;-76
2023/01/27 12:39:55;;;;;;;38.65;26.85;;;3.30;1.00;;;;;;4961388;28;20071;-77
2023/01/27 12:42:40;;;;;;;35.47;24.98;;;3.30;1.00;;;;;;4962208;28;20343;-75
2023/01/27 12:45:23;;;;;;;36.28;24.20;;;3.30;1.00;;;;;;4972256;28;20121;-76
2023/01/27 12:47:59;;;;;;;35.35;23.08;;;3.30;1.00;;;;;;4978564;28;20046;-76
2023/01/27 12:50:29;;;;;;;33.72;21.90;;;3.30;1.00;;;;;;4962624;28;20051;-76
2023/01/27 12:53:13;;;;;;;34.58;23.08;;;3.40;1.00;;;;;;4961062;28;20047;-77
2023/01/27 12:55:43;;;;;;;36.83;23.80;;;3.30;1.00;;;;;;4961836;28;20051;-77
2023/01/27 12:58:31;;;;;;;39.17;24.10;;;3.30;1.00;;;;;;4959188;28;20066;-77
2023/01/27 13:01:01;;;;;;;39.25;25.48;;;3.10;1.00;;;;;;4960084;28;20062;-76
2023/01/27 13:03:29;;;;;;;42.97;28.70;;;3.00;1.00;;;;;;4962911;28;20058;-78
2023/01/27 13:06:00;;;;;;;37.40;25.23;;;3.00;1.00;;;;;;4960994;28;20146;-75
2023/01/27 13:08:32;;;;;;;45.92;29.60;;;3.00;1.00;;;;;;4960782;28;20491;-77
2023/01/27 13:11:01;;;;;;;49.60;30.83;;;2.90;1.00;;;;;;4961064;28;20046;-78
2023/01/27 13:13:30;;;;;;;41.05;26.30;;;2.80;1.00;;;;;;4960471;28;20054;-76
2023/01/27 13:16:05;;;;;;;48.53;30.50;;;2.80;1.00;;;;;;4961402;28;20055;-78
2023/01/27 13:18:35;;;;;;;42.03;27.52;;;2.80;1.00;;;;;;4962196;28;20118;-78
2023/01/27 13:21:14;;;;;;;37.03;24.50;;;2.80;1.00;;;;;;4962270;28;20137;-77
2023/01/27 13:23:41;;;;;;;42.40;27.60;;;2.70;1.00;;;;;;4960791;28;20130;-75
2023/01/27 13:26:15;;;;;;;37.58;23.98;;;2.70;1.00;;;;;;4961223;28;20051;-76
2023/01/27 13:28:50;;;;;;;41.95;27.52;;;2.60;1.00;;;;;;4960924;28;20088;-77
2023/01/27 13:31:26;;;;;;;42.80;28.17;;;2.50;1.00;;;;;;4959261;28;20094;-75
2023/01/27 13:34:00;;;;;;;38.17;25.30;;;2.30;1.00;;;;;;4960258;28;20122;-77
2023/01/27 13:36:37;;;;;;;33.05;23.45;;;2.40;1.00;;;;;;4961851;28;20043;-77
2023/01/27 13:39:14;;;;;;;34.92;25.38;;;2.40;1.00;;;;;;4964722;28;20047;-78